Flight Track Log - Related Links

Times and Time Zones

All times are in EDT time to prevent confusion due to time zone crossing. See the JBU100 flight status page for this flight to view local times or setup timezone preferences in your user account.

Time Position Orientation Groundspeed Altitude Reporting Facility
EDT Latitude Longitude Course Direction KTS MPH feet Rate Location/Type
Tue 01:34:28 AM 33.9470 -118.4370 263° West 174 200 600  Level FlightAware ADS-B
Tue 01:34:47 AM 33.9450 -118.4530 261° West 170 196 1,500 2,167 Climbing FlightAware ADS-B
Tue 01:35:04 AM 33.9420 -118.4710 259° West 184 212 1,900 1,286 Climbing FlightAware ADS-B
Tue 01:35:15 AM 33.9360 -118.4800 231° Southwest 192 221 2,100 923 Climbing FlightAware ADS-B
Tue 01:35:30 AM 33.9250 -118.4930 224° Southwest 211 243 2,300 649 Climbing FlightAware ADS-B
Tue 01:35:52 AM 33.9100 -118.5100 223° Southwest 238 274 2,500 1,000 Climbing FlightAware ADS-B
Tue 01:36:12 AM 33.8910 -118.5300 221° Southwest 264 304 3,000 2,154 Climbing FlightAware ADS-B
Tue 01:36:31 AM 33.8730 -118.5480 220° Southwest 269 310 3,900 2,786 Climbing FlightAware ADS-B
Tue 01:36:40 AM 33.8620 -118.5540 204° Southwest 270 311 4,300 2,700 Climbing FlightAware ADS-B
Tue 01:36:51 AM 33.8500 -118.5570 192° South 271 312 4,800 2,516 Climbing FlightAware ADS-B
Tue 01:37:11 AM 33.8250 -118.5530 172° South 279 321 5,600 2,323 Climbing FlightAware ADS-B
Tue 01:37:22 AM 33.8110 -118.5500 170° South 280 322 6,000 2,710 Climbing FlightAware ADS-B
Tue 01:37:42 AM 33.7880 -118.5440 168° South 279 321 7,000 2,833 Climbing FlightAware ADS-B
Tue 01:37:58 AM 33.7670 -118.5380 167° South 280 322 7,700 2,500 Climbing FlightAware ADS-B
Tue 01:38:18 AM 33.7420 -118.5320 169° South 284 327 8,500 2,667 Climbing FlightAware ADS-B
Tue 01:38:34 AM 33.7190 -118.5260 168° South 283 326 9,300 2,786 Climbing FlightAware ADS-B
Tue 01:38:46 AM 33.7040 -118.5170 153° Southeast 288 331 9,800 2,182 Climbing FlightAware ADS-B
Tue 01:38:56 AM 33.6940 -118.5050 135° Southeast 293 337 10,100 1,500 Climbing FlightAware ADS-B
Tue 01:39:06 AM 33.6880 -118.4920 119° Southeast 302 348 10,300 1,227 Climbing FlightAware ADS-B
Tue 01:39:40 AM 33.6710 -118.4340 109° East 331 381 11,000 1,324 Climbing FlightAware ADS-B
Tue 01:40:14 AM 33.6540 -118.3750 109° East 348 400 11,800 1,053 Climbing FlightAware ADS-B
Tue 01:40:37 AM 33.6450 -118.3350 105° East 366 421 12,000 1,258 Climbing FlightAware ADS-B
Tue 01:41:16 AM 33.6450 -118.2520 90° East 376 433 13,100 1,636 Climbing FlightAware ADS-B
Tue 01:41:54 AM 33.6450 -118.1710 90° East 383 441 14,100 1,541 Climbing FlightAware ADS-B
Tue 01:42:30 AM 33.6450 -118.0910 90° East 392 451 15,000 1,417 Climbing FlightAware ADS-B
Tue 01:43:06 AM 33.6450 -118.0160 90° East 401 461 15,800 1,412 Climbing FlightAware ADS-B
Tue 01:43:38 AM 33.6450 -117.9420 90° East 406 467 16,600 1,500 Climbing FlightAware ADS-B
Tue 01:44:14 AM 33.6450 -117.8590 90° East 411 473 17,500 1,333 Climbing FlightAware ADS-B
Tue 01:44:50 AM 33.6380 -117.7800 96° East 419 482 18,200 1,333 Climbing FlightAware ADS-B
Tue 01:45:26 AM 33.6290 -117.6950 97° East 425 489 19,100 1,324 Climbing FlightAware ADS-B
Tue 01:45:58 AM 33.6200 -117.6180 98° East 432 497 19,700 1,235 Climbing FlightAware ADS-B
Tue 01:46:34 AM 33.6100 -117.5290 98° East 439 505 20,500 1,250 Climbing FlightAware ADS-B
Tue 01:47:10 AM 33.6010 -117.4450 97° East 442 509 21,200 1,167 Climbing FlightAware ADS-B
Tue 01:47:46 AM 33.5910 -117.3560 98° East 447 514 21,900 1,235 Climbing FlightAware ADS-B
Tue 01:48:18 AM 33.5820 -117.2770 98° East 449 517 22,600 1,114 Climbing FlightAware ADS-B
Tue 01:48:56 AM 33.5710 -117.1840 98° East 453 521 23,200 1,054 Climbing FlightAware ADS-B
Tue 01:49:32 AM 33.5610 -117.0970 98° East 457 526 23,900 1,147 Climbing FlightAware ADS-B
Tue 01:50:04 AM 33.5520 -117.0170 98° East 458 527 24,500 985 Climbing FlightAware ADS-B
Tue 01:50:39 AM 33.5410 -116.9280 98° East 462 532 25,000 930 Climbing FlightAware ADS-B
Tue 01:51:15 AM 33.5310 -116.8380 98° East 465 535 25,600 917 Climbing FlightAware ADS-B
Tue 01:51:51 AM 33.5190 -116.7420 99° East 470 541 26,100 794 Climbing FlightAware ADS-B
Tue 01:52:23 AM 33.5100 -116.6630 98° East 474 545 26,500 882 Climbing FlightAware ADS-B
Tue 01:52:59 AM 33.4990 -116.5660 98° East 478 550 27,100 892 Climbing FlightAware ADS-B
Tue 01:53:37 AM 33.4860 -116.4630 99° East 483 556 27,600 771 Climbing FlightAware ADS-B
Tue 01:54:09 AM 33.4760 -116.3840 99° East 486 559 28,000 783 Climbing FlightAware ADS-B
Tue 01:54:46 AM 33.4640 -116.2800 98° East 490 564 28,500 730 Climbing FlightAware ADS-B
Tue 01:55:23 AM 33.4520 -116.1810 98° East 494 568 28,900 896 Climbing FlightAware ADS-B
Tue 01:55:53 AM 33.4410 -116.0980 99° East 492 566 29,500 985 Climbing FlightAware ADS-B
Tue 01:56:30 AM 33.4290 -116.0000 98° East 492 566 30,000 892 Climbing FlightAware ADS-B
Tue 01:57:07 AM 33.4170 -115.9000 98° East 493 567 30,600 904 Climbing FlightAware ADS-B
Tue 01:57:43 AM 33.4050 -115.8030 98° East 492 566 31,100 985 Climbing FlightAware ADS-B
Tue 01:58:14 AM 33.3940 -115.7190 99° East 489 563 31,700 971 Climbing FlightAware ADS-B
Tue 01:58:51 AM 33.3820 -115.6230 98° East 489 563 32,200 740 Climbing FlightAware ADS-B
Tue 01:59:27 AM 33.3700 -115.5280 99° East 491 565 32,600 667 Climbing FlightAware ADS-B
Tue 02:00:03 AM 33.3570 -115.4300 99° East 492 566 33,000 794 Climbing FlightAware ADS-B
Tue 02:00:35 AM 33.3450 -115.3430 99° East 491 565 33,500 896 Climbing FlightAware ADS-B
Tue 02:01:10 AM 33.3330 -115.2490 99° East 488 562 34,000 750 Climbing FlightAware ADS-B
Tue 02:01:47 AM 33.3200 -115.1520 99° East 487 560 34,400 667 Climbing FlightAware ADS-B
Tue 02:02:22 AM 33.3080 -115.0590 99° East 486 559 34,800 514 Climbing FlightAware ADS-B
Tue 02:02:57 AM 33.2990 -114.9900 99° East 484 557 35,000 164 Climbing FlightAware ADS-B
Tue 02:03:35 AM 33.2840 -114.8780 99° East 484 557 35,000  Level FlightAware ADS-B
Tue 02:04:25 AM 33.2660 -114.7460 99° East 486 559 35,000  Level FlightAware ADS-B
Tue 02:04:56 AM 33.2560 -114.6700 99° East 486 559 35,000  Level FlightAware ADS-B
Tue 02:05:36 AM 33.2440 -114.5800 99° East 486 559 35,000  Level FlightAware ADS-B
Tue 02:06:16 AM 33.2280 -114.4640 99° East 487 560 35,000  Level FlightAware ADS-B
Tue 02:06:52 AM 33.2170 -114.3820 99° East 487 560 35,000  Level FlightAware ADS-B
Tue 02:07:28 AM 33.2070 -114.3010 98° East 487 560 35,000  Level FlightAware ADS-B
Tue 02:08:02 AM 33.1860 -114.1580 100° East 488 562 35,000  Level FlightAware ADS-B
Tue 02:08:38 AM 33.1720 -114.0610 100° East 488 562 35,000  Level FlightAware ADS-B
Tue 02:09:28 AM 33.1560 -113.9420 99° East 488 562 35,000  Level FlightAware ADS-B
Tue 02:10:03 AM 33.1460 -113.8770 100° East 489 563 35,000  Level FlightAware ADS-B
Tue 02:10:38 AM 33.1300 -113.7690 100° East 489 563 35,000  Level FlightAware ADS-B
Tue 02:11:26 AM 33.1160 -113.6600 99° East 489 563 35,000  Level FlightAware ADS-B
Tue 02:12:08 AM 33.1030 -113.5290 97° East 491 565 35,000  Level FlightAware ADS-B
Tue 02:12:48 AM 33.0960 -113.4190 94° East 490 564 35,000  Level FlightAware ADS-B
Tue 02:13:22 AM 33.0890 -113.3280 95° East 490 564 35,000  Level FlightAware ADS-B
Tue 02:16:02 AM 33.0560 -112.8740 95° East 492 566 35,000  Level FlightAware ADS-B
Tue 02:16:35 AM 33.0490 -112.7850 95° East 492 566 35,000  Level FlightAware ADS-B
Tue 02:17:11 AM 33.0420 -112.6850 95° East 493 567 35,000  Level FlightAware ADS-B
Tue 02:17:51 AM 33.0330 -112.5780 96° East 493 567 35,000  Level FlightAware ADS-B
Tue 02:20:07 AM 33.0040 -112.2110 95° East 493 567 35,000  Level FlightAware ADS-B
Tue 02:21:18 AM 32.9906 -112.0478 95° East 492 566 35,000  Level Albuquerque Center
Tue 02:22:16 AM 32.9756 -111.8814 96° East 492 566 35,000  Level Albuquerque Center
Tue 02:23:18 AM 32.9611 -111.7258 96° East 492 566 35,000  Level Albuquerque Center
Tue 02:24:16 AM 32.9464 -111.5650 96° East 492 566 35,000  Level Albuquerque Center
Tue 02:25:19 AM 32.9314 -111.4042 96° East 492 566 35,000  Level Albuquerque Center
Tue 02:26:19 AM 32.9161 -111.2433 96° East 493 567 35,000  Level Albuquerque Center
Tue 02:27:17 AM 32.9006 -111.0822 97° East 493 567 35,000  Level Albuquerque Center
Tue 02:28:17 AM 32.8847 -110.9211 97° East 493 567 35,000  Level Albuquerque Center
Tue 02:29:20 AM 32.8686 -110.7600 97° East 493 567 35,000  Level Albuquerque Center
Tue 02:30:18 AM 32.8503 -110.5781 97° East 494 568 35,000  Level Albuquerque Center
Tue 02:31:19 AM 32.8339 -110.4169 97° East 494 568 35,000  Level Albuquerque Center
Tue 02:32:18 AM 32.8172 -110.2556 97° East 493 567 35,000  Level Albuquerque Center
Tue 02:33:21 AM 32.8006 -110.0947 97° East 492 566 35,000  Level Albuquerque Center
Tue 02:34:19 AM 32.7833 -109.9342 97° East 493 567 35,000  Level Albuquerque Center
Tue 02:35:21 AM 32.7661 -109.7733 97° East 494 568 35,000  Level Albuquerque Center
Tue 02:36:19 AM 32.7486 -109.6125 97° East 494 568 35,000  Level Albuquerque Center
Tue 02:37:21 AM 32.7311 -109.4517 97° East 495 570 35,000  Level Albuquerque Center
Tue 02:38:20 AM 32.7133 -109.2914 97° East 494 568 35,000  Level Albuquerque Center
Tue 02:43:57 AM 32.6110 -108.4070 97° East 494 568 35,000  Level FlightAware ADS-B
Tue 02:44:29 AM 32.6020 -108.3340 98° East 494 568 35,000  Level FlightAware ADS-B
Tue 02:45:17 AM 32.5890 -108.2240 98° East 494 568 35,000  Level FlightAware ADS-B
Tue 02:45:54 AM 32.5790 -108.1400 98° East 494 568 35,000  Level FlightAware ADS-B
Tue 02:46:30 AM 32.5700 -108.0570 97° East 494 568 35,000  Level FlightAware ADS-B
Tue 02:47:07 AM 32.5600 -107.9730 98° East 494 568 35,000  Level FlightAware ADS-B
Tue 02:47:43 AM 32.5500 -107.8910 98° East 494 568 35,000  Level FlightAware ADS-B
Tue 02:48:19 AM 32.5400 -107.8090 98° East 494 568 35,000  Level FlightAware ADS-B
Tue 02:48:56 AM 32.5300 -107.7240 98° East 494 568 35,000  Level FlightAware ADS-B
Tue 02:49:32 AM 32.5200 -107.6420 98° East 494 568 35,000  Level FlightAware ADS-B
Tue 02:50:08 AM 32.5110 -107.5600 97° East 494 568 35,000  Level FlightAware ADS-B
Tue 02:50:47 AM 32.4710 -107.2740 99° East 503 579 35,000  Level FlightAware ADS-B
Tue 02:51:17 AM 32.4600 -107.1900 99° East 503 579 35,000  Level FlightAware ADS-B
Tue 02:51:54 AM 32.4470 -107.0910 99° East 504 580 35,000  Level FlightAware ADS-B
Tue 02:52:29 AM 32.4340 -106.9920 99° East 504 580 35,000  Level FlightAware ADS-B
Tue 02:53:04 AM 32.4210 -106.8960 99° East 504 580 35,000  Level FlightAware ADS-B
Tue 02:53:39 AM 32.4090 -106.8020 99° East 503 579 35,000  Level FlightAware ADS-B
Tue 02:54:14 AM 32.3960 -106.7040 99° East 503 579 35,000  Level FlightAware ADS-B
Tue 02:54:49 AM 32.3840 -106.6120 99° East 503 579 35,000  Level FlightAware ADS-B
Tue 02:55:29 AM 32.3690 -106.5020 99° East 503 579 35,000  Level FlightAware ADS-B
Tue 02:56:04 AM 32.3560 -106.4080 99° East 503 579 35,000  Level FlightAware ADS-B
Tue 02:56:44 AM 32.3420 -106.3030 99° East 502 578 35,000  Level FlightAware ADS-B
Tue 02:57:19 AM 32.3280 -106.2070 100° East 502 578 35,000  Level FlightAware ADS-B
Tue 02:57:57 AM 32.3140 -106.1020 99° East 500 575 35,000  Level FlightAware ADS-B
Tue 02:58:31 AM 32.3040 -106.0280 99° East 499 574 35,000  Level FlightAware ADS-B
Tue 02:59:10 AM 32.2920 -105.9380 99° East 499 574 35,000  Level FlightAware ADS-B
Tue 02:59:46 AM 32.2810 -105.8560 99° East 499 574 35,000  Level FlightAware ADS-B
Tue 03:00:22 AM 32.2690 -105.7730 100° East 499 574 35,000  Level FlightAware ADS-B
Tue 03:00:25 AM 32.2625 -105.7333 100° East 498 573 35,000  Level Albuquerque Center
Tue 03:00:58 AM 32.2580 -105.6910 99° East 499 574 35,000  Level FlightAware ADS-B
Tue 03:01:26 AM 32.2400 -105.5775 100° East 497 572 35,000  Level Albuquerque Center
Tue 03:01:35 AM 32.2470 -105.6060 99° East 499 574 35,000  Level FlightAware ADS-B
Tue 03:02:11 AM 32.2360 -105.5230 99° East 499 574 35,000 -113 Level FlightAware ADS-B
Tue 03:02:28 AM 32.2172 -105.4164 99° East 497 572 34,900  Descending Albuquerque Center
Tue 03:02:47 AM 32.2250 -105.4410 99° East 499 574 35,000 105 Climbing FlightAware ADS-B
Tue 03:03:25 AM 32.1936 -105.2556 100° East 497 572 35,000  Level Albuquerque Center
Tue 03:05:00 AM 32.1748 -105.1108 100° East  Level FlightAware Approximate
Tue 03:09:07 AM 32.0570 -104.3420 100° East 506 582 35,000  Level FlightAware ADS-B
Tue 03:09:45 AM 32.0430 -104.2500 100° East 506 582 35,000  Level FlightAware ADS-B
Tue 03:10:21 AM 32.0310 -104.1670 100° East 506 582 35,000  Level FlightAware ADS-B
Tue 03:10:57 AM 32.0180 -104.0830 100° East 506 582 35,000  Level FlightAware ADS-B
Tue 03:11:35 AM 32.0050 -103.9960 100° East 506 582 35,000  Level FlightAware ADS-B
Tue 03:12:11 AM 31.9930 -103.9120 100° East 506 582 35,000  Level FlightAware ADS-B
Tue 03:12:47 AM 31.9800 -103.8290 100° East 506 582 35,000  Level FlightAware ADS-B
Tue 03:13:23 AM 31.9680 -103.7460 100° East 506 582 35,000  Level FlightAware ADS-B
Tue 03:13:59 AM 31.9560 -103.6630 100° East 506 582 35,000  Level FlightAware ADS-B
Tue 03:14:35 AM 31.9430 -103.5800 100° East 506 582 35,000  Level FlightAware ADS-B
Tue 03:15:11 AM 31.9310 -103.4970 100° East 506 582 35,000  Level FlightAware ADS-B
Tue 03:15:47 AM 31.9180 -103.4140 100° East 506 582 35,000  Level FlightAware ADS-B
Tue 03:16:23 AM 31.9060 -103.3300 100° East 506 582 35,000  Level FlightAware ADS-B
Tue 03:16:59 AM 31.8930 -103.2470 100° East 506 582 35,000  Level FlightAware ADS-B
Tue 03:17:35 AM 31.8810 -103.1640 100° East 506 582 35,000  Level FlightAware ADS-B
Tue 03:18:11 AM 31.8680 -103.0810 100° East 506 582 35,000  Level FlightAware ADS-B
Tue 03:18:47 AM 31.8560 -102.9980 100° East 506 582 35,000  Level FlightAware ADS-B
Tue 03:22:31 AM 31.6990 -102.1350 102° East 504 580 35,000  Level FlightAware ADS-B
Tue 03:23:07 AM 31.6820 -102.0360 101° East 505 581 35,000  Level FlightAware ADS-B
Tue 03:23:43 AM 31.6650 -101.9420 102° East 505 581 35,000  Level FlightAware ADS-B
Tue 03:24:15 AM 31.6510 -101.8560 101° East 505 581 35,000  Level FlightAware ADS-B
Tue 03:24:51 AM 31.6330 -101.7580 102° East 505 581 35,000  Level FlightAware ADS-B
Tue 03:25:27 AM 31.6170 -101.6630 101° East 504 580 35,000  Level FlightAware ADS-B
Tue 03:26:03 AM 31.6000 -101.5660 102° East 504 580 35,000  Level FlightAware ADS-B
Tue 03:26:37 AM 31.5830 -101.4740 102° East 505 581 35,000  Level FlightAware ADS-B
Tue 03:27:11 AM 31.5670 -101.3830 102° East 505 581 35,000  Level FlightAware ADS-B
Tue 03:27:46 AM 31.5510 -101.2930 102° East 505 581 35,000  Level FlightAware ADS-B
Tue 03:28:21 AM 31.5340 -101.1960 102° East 504 580 35,000  Level FlightAware ADS-B
Tue 03:28:53 AM 31.5190 -101.1130 102° East 503 579 35,000  Level FlightAware ADS-B
Tue 03:29:33 AM 31.4990 -101.0060 102° East 503 579 35,000  Level FlightAware ADS-B
Tue 03:30:05 AM 31.4840 -100.9220 102° East 504 580 35,000  Level FlightAware ADS-B
Tue 03:30:41 AM 31.4660 -100.8240 102° East 505 581 35,000  Level FlightAware ADS-B
Tue 03:31:18 AM 31.4490 -100.7280 102° East 505 581 35,000  Level FlightAware ADS-B
Tue 03:31:51 AM 31.4320 -100.6370 102° East 506 582 35,000  Level FlightAware ADS-B
Tue 03:32:25 AM 31.4150 -100.5450 102° East 506 582 35,000  Level FlightAware ADS-B
Tue 03:33:02 AM 31.3970 -100.4480 102° East 506 582 35,000  Level FlightAware ADS-B
Tue 03:33:39 AM 31.3790 -100.3500 102° East 506 582 35,000  Level FlightAware ADS-B
Tue 03:34:11 AM 31.3620 -100.2640 103° East 506 582 35,000  Level FlightAware ADS-B
Tue 03:34:46 AM 31.3450 -100.1720 102° East 507 583 35,000  Level FlightAware ADS-B
Tue 03:35:22 AM 31.3260 -100.0730 103° East 506 582 35,000  Level FlightAware ADS-B
Tue 03:35:56 AM 31.3090 -99.9830 102° East 507 583 35,000  Level FlightAware ADS-B
Tue 03:36:32 AM 31.2910 -99.8870 102° East 507 583 35,000  Level FlightAware ADS-B
Tue 03:37:08 AM 31.2730 -99.7920 102° East 506 582 35,000  Level FlightAware ADS-B
Tue 03:37:44 AM 31.2540 -99.6940 103° East 506 582 35,000  Level FlightAware ADS-B
Tue 03:38:16 AM 31.2380 -99.6110 103° East 504 580 35,000  Level FlightAware ADS-B
Tue 03:38:52 AM 31.2190 -99.5140 103° East 503 579 35,000  Level FlightAware ADS-B
Tue 03:39:28 AM 31.2010 -99.4180 102° East 502 578 35,000  Level FlightAware ADS-B
Tue 03:40:04 AM 31.1820 -99.3240 103° East 501 577 35,000  Level FlightAware ADS-B
Tue 03:40:36 AM 31.1660 -99.2400 103° East 500 575 35,000  Level FlightAware ADS-B
Tue 03:41:12 AM 31.1470 -99.1440 103° East 499 574 35,000  Level FlightAware ADS-B
Tue 03:41:48 AM 31.1290 -99.0520 103° East 500 575 35,000  Level FlightAware ADS-B
Tue 03:42:24 AM 31.1100 -98.9560 103° East 499 574 35,000  Level FlightAware ADS-B
Tue 03:42:56 AM 31.0930 -98.8720 103° East 499 574 35,000  Level FlightAware ADS-B
Tue 03:43:21 AM 31.0794 -98.8049 103° East 500 575 35,000  Level FlightAware ADS-B
Tue 03:44:08 AM 31.0550 -98.6850 103° East 501 577 35,000  Level FlightAware ADS-B
Tue 03:44:40 AM 31.0380 -98.6010 103° East 501 577 35,000  Level FlightAware ADS-B
Tue 03:45:18 AM 31.0180 -98.4990 103° East 501 577 35,000  Level FlightAware ADS-B
Tue 03:45:54 AM 30.9990 -98.4070 104° East 500 575 35,000  Level FlightAware ADS-B
Tue 03:46:33 AM 30.9780 -98.3060 104° East 499 574 35,000  Level FlightAware ADS-B
Tue 03:47:09 AM 30.9590 -98.2110 103° East 498 573 35,000  Level FlightAware ADS-B
Tue 03:47:45 AM 30.9400 -98.1160 103° East 498 573 35,000  Level FlightAware ADS-B
Tue 03:48:17 AM 30.9220 -98.0330 104° East 498 573 35,000  Level FlightAware ADS-B
Tue 03:48:54 AM 30.9020 -97.9370 104° East 498 573 35,000  Level FlightAware ADS-B
Tue 03:49:31 AM 30.8830 -97.8410 103° East 498 573 35,000  Level FlightAware ADS-B
Tue 03:50:03 AM 30.8650 -97.7590 104° East 497 572 35,000  Level FlightAware ADS-B
Tue 03:50:12 AM 30.8598 -97.7326 103° East 498 573 35,000  Level FlightAware ADS-B
Tue 03:50:43 AM 30.8425 -97.6504 104° East 497 572 35,000  Level FlightAware ADS-B
Tue 03:51:15 AM 30.8260 -97.5730 104° East 497 572 35,000  Level FlightAware ADS-B
Tue 03:51:47 AM 30.8077 -97.4855 104° East 496 571 35,000  Level FlightAware ADS-B
Tue 03:52:23 AM 30.7890 -97.3960 104° East 496 571 35,000  Level FlightAware ADS-B
Tue 03:52:55 AM 30.7710 -97.3130 104° East 495 570 35,000  Level FlightAware ADS-B
Tue 03:53:33 AM 30.7500 -97.2140 104° East 495 570 35,000  Level FlightAware ADS-B
Tue 03:54:09 AM 30.7300 -97.1210 104° East 496 571 35,000  Level FlightAware ADS-B
Tue 03:54:44 AM 30.7100 -97.0300 104° East 497 572 35,000  Level FlightAware ADS-B
Tue 03:55:19 AM 30.6920 -96.9430 104° East 496 571 35,000  Level FlightAware ADS-B
Tue 03:55:55 AM 30.6710 -96.8470 104° East 498 573 35,000  Level FlightAware ADS-B
Tue 03:56:32 AM 30.6510 -96.7550 104° East 500 575 35,000  Level FlightAware ADS-B
Tue 03:57:39 AM 30.6130 -96.5810 104° East 503 579 35,000  Level FlightAware ADS-B
Tue 03:58:15 AM 30.5920 -96.4830 104° East 504 580 35,000  Level FlightAware ADS-B
Tue 03:58:51 AM 30.5700 -96.3870 105° East 504 580 35,000  Level FlightAware ADS-B
Tue 03:59:23 AM 30.5520 -96.3040 104° East 504 580 35,000  Level FlightAware ADS-B
Tue 03:59:55 AM 30.5330 -96.2190 105° East 504 580 35,000  Level FlightAware ADS-B
Tue 04:00:36 AM 30.5100 -96.1170 105° East 503 579 35,000  Level FlightAware ADS-B
Tue 04:01:11 AM 30.4880 -96.0220 105° East 502 578 35,000  Level FlightAware ADS-B
Tue 04:01:44 AM 30.4700 -95.9380 104° East 501 577 35,000  Level FlightAware ADS-B
Tue 04:02:19 AM 30.4490 -95.8470 105° East 501 577 35,000  Level FlightAware ADS-B
Tue 04:02:53 AM 30.4300 -95.7620 105° East 499 574 35,000  Level FlightAware ADS-B
Tue 04:03:30 AM 30.4080 -95.6650 105° East 498 573 35,000  Level FlightAware ADS-B
Tue 04:04:06 AM 30.3870 -95.5730 105° East 497 572 35,000  Level FlightAware ADS-B
Tue 04:04:39 AM 30.3680 -95.4890 105° East 497 572 35,000  Level FlightAware ADS-B
Tue 04:05:15 AM 30.3460 -95.3920 105° East 498 573 35,000  Level FlightAware ADS-B
Tue 04:05:50 AM 30.3250 -95.3030 105° East 496 571 35,000  Level FlightAware ADS-B
Tue 04:06:27 AM 30.3030 -95.2070 105° East 495 570 35,000  Level FlightAware ADS-B
Tue 04:07:35 AM 30.2640 -95.0370 105° East 493 567 35,000  Level FlightAware ADS-B
Tue 04:08:10 AM 30.2420 -94.9440 105° East 493 567 35,000  Level FlightAware ADS-B
Tue 04:08:48 AM 30.2190 -94.8480 105° East 493 567 35,000  Level FlightAware ADS-B
Tue 04:09:20 AM 30.2010 -94.7710 105° East 492 566 35,000  Level FlightAware ADS-B
Tue 04:09:55 AM 30.1800 -94.6800 105° East 492 566 35,000  Level FlightAware ADS-B
Tue 04:10:32 AM 30.1570 -94.5850 106° East 491 565 35,000  Level FlightAware ADS-B
Tue 04:11:01 AM 30.1400 -94.5100 105° East 490 564 35,000  Level FlightAware ADS-B
Tue 04:11:41 AM 30.1160 -94.4100 105° East 489 563 35,000  Level FlightAware ADS-B
Tue 04:12:13 AM 30.0970 -94.3310 106° East 488 562 35,000  Level FlightAware ADS-B
Tue 04:12:53 AM 30.0730 -94.2310 105° East 488 562 35,000  Level FlightAware ADS-B
Tue 04:13:34 AM 30.0520 -94.1410 105° East 488 562 35,000  Level FlightAware ADS-B
Tue 04:14:04 AM 30.0300 -94.0510 106° East 489 563 35,000  Level FlightAware ADS-B
Tue 04:14:43 AM 30.0060 -93.9550 106° East 488 562 35,000  Level FlightAware ADS-B
Tue 04:15:18 AM 29.9850 -93.8670 105° East 488 562 35,000  Level FlightAware ADS-B
Tue 04:15:54 AM 29.9630 -93.7750 105° East 490 564 35,000  Level FlightAware ADS-B
Tue 04:16:31 AM 29.9400 -93.6840 106° East 489 563 35,000  Level FlightAware ADS-B
Tue 04:17:04 AM 29.9200 -93.6000 105° East 489 563 35,000  Level FlightAware ADS-B
Tue 04:17:38 AM 29.9000 -93.5180 106° East 488 562 35,000  Level FlightAware ADS-B
Tue 04:18:15 AM 29.8760 -93.4220 106° East 488 562 35,000  Level FlightAware ADS-B
Tue 04:18:48 AM 29.8560 -93.3400 106° East 487 560 35,000  Level FlightAware ADS-B
Tue 04:19:24 AM 29.8340 -93.2510 106° East 486 559 35,000  Level FlightAware ADS-B
Tue 04:19:55 AM 29.8150 -93.1750 106° East 486 559 35,000  Level FlightAware ADS-B
Tue 04:20:55 AM 29.7770 -93.0240 106° East 483 556 35,000  Level FlightAware ADS-B
Tue 04:21:52 AM 29.7430 -92.8870 106° East 481 554 35,000  Level FlightAware ADS-B
Tue 04:22:22 AM 29.7230 -92.8110 107° East 481 554 35,000  Level FlightAware ADS-B
Tue 04:23:01 AM 29.7030 -92.7290 106° East 481 554 35,000  Level FlightAware ADS-B
Tue 04:23:50 AM 29.6770 -92.6270 106° East 481 554 35,000  Level FlightAware ADS-B
Tue 04:24:27 AM 29.6580 -92.5490 106° East 481 554 35,000  Level FlightAware ADS-B
Tue 04:25:17 AM 29.6150 -92.3870 107° East 480 552 35,000  Level FlightAware ADS-B
Tue 04:25:56 AM 29.6010 -92.3300 106° East 480 552 35,000  Level FlightAware ADS-B
Tue 04:26:58 AM 29.5530 -92.1430 106° East 480 552 35,000  Level FlightAware ADS-B
Tue 04:27:34 AM 29.5310 -92.0570 106° East 479 551 35,000  Level FlightAware ADS-B
Tue 04:28:14 AM 29.5040 -91.9560 107° East 478 550 35,000  Level FlightAware ADS-B
Tue 04:29:06 AM 29.4890 -91.8990 107° East 477 549 35,000  Level FlightAware ADS-B
Tue 04:29:35 AM 29.4520 -91.7570 107° East 473 544 35,000  Level FlightAware ADS-B
Tue 04:30:22 AM 29.4270 -91.6590 106° East 474 545 35,000  Level FlightAware ADS-B
Tue 04:30:53 AM 29.4040 -91.5720 107° East 473 544 35,000  Level FlightAware ADS-B
Tue 04:31:46 AM 29.3770 -91.4680 107° East 474 545 35,000  Level FlightAware ADS-B
Tue 04:32:18 AM 29.3600 -91.4020 106° East 473 544 35,000  Level FlightAware ADS-B
Tue 04:32:54 AM 29.3610 -91.4090 279° West 473 544 35,000  Level FlightAware ADS-B
Tue 04:33:31 AM 29.3420 -91.3330 106° East 473 544 35,000  Level FlightAware ADS-B
Tue 04:34:07 AM 29.3240 -91.2590 106° East 473 544 35,000  Level FlightAware ADS-B
Tue 04:34:43 AM 29.3050 -91.1850 106° East 473 544 35,000  Level FlightAware ADS-B
Tue 04:35:19 AM 29.2870 -91.1110 106° East 473 544 35,000  Level FlightAware ADS-B
Tue 04:35:55 AM 29.2680 -91.0370 106° East 473 544 35,000  Level FlightAware ADS-B
Tue 04:36:31 AM 29.2500 -90.9640 106° East 473 544 35,000  Level FlightAware ADS-B
Tue 04:37:07 AM 29.2320 -90.8900 106° East 473 544 35,000  Level FlightAware ADS-B
Tue 04:37:43 AM 29.2130 -90.8160 106° East 473 544 35,000  Level FlightAware ADS-B
Tue 04:38:19 AM 29.1950 -90.7420 106° East 473 544 35,000  Level FlightAware ADS-B
Tue 04:38:55 AM 29.1760 -90.6690 107° East 473 544 35,000  Level FlightAware ADS-B
Tue 04:39:35 AM 29.0670 -90.3200 110° East 475 547 35,000  Level FlightAware ADS-B
Tue 04:40:23 AM 29.0400 -90.2190 107° East 475 547 35,000  Level FlightAware ADS-B
Tue 04:40:59 AM 29.0200 -90.1460 107° East 475 547 35,000  Level FlightAware ADS-B
Tue 04:41:26 AM 29.0610 -90.2970 287° West 35,000  Level FlightAware ADS-B
Tue 04:41:50 AM 28.9780 -89.9980 108° East 472 543 35,000 103 Level FlightAware ADS-B
Tue 04:42:24 AM 28.9550 -89.9170 108° East 471 542 35,100 522 Climbing FlightAware ADS-B
Tue 04:42:59 AM 28.9330 -89.8380 108° East 469 540 35,600 623 Climbing FlightAware ADS-B
Tue 04:43:41 AM 28.9080 -89.7460 107° East 470 541 35,900 405 Climbing FlightAware ADS-B
Tue 04:44:13 AM 28.8900 -89.6800 107° East 471 542 36,100 675 Climbing FlightAware ADS-B
Tue 04:45:01 AM 28.8560 -89.5580 108° East 469 540 36,800 581 Climbing FlightAware ADS-B
Tue 04:45:46 AM 28.8550 -89.5540 106° East 469 540 37,000 154 Climbing FlightAware ADS-B
Tue 04:46:19 AM 28.8000 -89.3630 108° East 471 542 37,000  Level FlightAware ADS-B
Tue 04:46:49 AM 28.7800 -89.2920 108° East 471 542 37,000  Level FlightAware ADS-B
Tue 04:47:22 AM 28.7590 -89.2180 108° East 469 540 37,000  Level FlightAware ADS-B
Tue 04:48:01 AM 28.7320 -89.1240 108° East 467 537 37,000  Level FlightAware ADS-B
Tue 04:48:37 AM 28.7080 -89.0400 108° East 466 536 37,000  Level FlightAware ADS-B
Tue 04:49:09 AM 28.6870 -88.9660 108° East 465 535 37,000  Level FlightAware ADS-B
Tue 04:49:45 AM 28.6620 -88.8800 108° East 465 535 37,000  Level FlightAware ADS-B
Tue 04:50:20 AM 28.6390 -88.8010 108° East 466 536 37,000  Level FlightAware ADS-B
Tue 04:50:53 AM 28.6170 -88.7240 108° East 466 536 37,000  Level FlightAware ADS-B
Tue 04:51:29 AM 28.5930 -88.6390 108° East 467 537 37,000  Level FlightAware ADS-B
Tue 04:52:05 AM 28.5680 -88.5550 109° East 467 537 37,000  Level FlightAware ADS-B
Tue 04:52:41 AM 28.5440 -88.4710 108° East 466 536 37,000  Level FlightAware ADS-B
Tue 04:53:17 AM 28.5190 -88.3870 109° East 465 535 37,000  Level FlightAware ADS-B
Tue 04:53:47 AM 28.5000 -88.3220 108° East 464 534 37,000  Level FlightAware ADS-B
Tue 04:54:24 AM 28.4740 -88.2330 108° East 464 534 37,000  Level FlightAware ADS-B
Tue 04:55:00 AM 28.4500 -88.1480 108° East 464 534 37,000  Level FlightAware ADS-B
Tue 04:55:33 AM 28.4280 -88.0740 109° East 463 533 37,000  Level FlightAware ADS-B
Tue 04:56:09 AM 28.4030 -87.9920 109° East 464 534 37,000  Level FlightAware ADS-B
Tue 04:56:45 AM 28.3780 -87.9070 108° East 464 534 37,000  Level FlightAware ADS-B
Tue 04:57:17 AM 28.3560 -87.8320 108° East 464 534 37,000  Level FlightAware ADS-B
Tue 04:57:53 AM 28.3320 -87.7510 109° East 463 533 37,000  Level FlightAware ADS-B
Tue 04:58:24 AM 28.3110 -87.6820 109° East 464 534 37,000  Level FlightAware ADS-B
Tue 04:59:03 AM 28.2830 -87.5890 109° East 463 533 37,000  Level FlightAware ADS-B
Tue 04:59:45 AM 28.2600 -87.5070 108° East 463 533 37,000  Level FlightAware ADS-B
Tue 05:00:21 AM 28.2400 -87.4360 108° East 463 533 37,000  Level FlightAware ADS-B
Tue 05:00:57 AM 28.2190 -87.3650 109° East 463 533 37,000  Level FlightAware ADS-B
Tue 05:01:33 AM 28.1990 -87.2950 108° East 463 533 37,000  Level FlightAware ADS-B
Tue 05:02:05 AM 28.1590 -87.1760 111° Southeast 457 526 37,000  Level FlightAware ADS-B
Tue 05:02:41 AM 28.1380 -87.1030 108° East 457 526 37,000  Level FlightAware ADS-B
Tue 05:03:18 AM 28.1170 -87.0310 108° East 457 526 37,000  Level FlightAware ADS-B
Tue 05:03:54 AM 28.0970 -86.9610 108° East 457 526 37,000  Level FlightAware ADS-B
Tue 05:04:28 AM 28.0780 -86.8950 108° East 457 526 37,000  Level FlightAware ADS-B
Tue 05:05:02 AM 28.0370 -86.7750 111° Southeast 459 528 37,000  Level FlightAware ADS-B
Tue 05:05:38 AM 28.0130 -86.6940 109° East 459 528 37,000  Level FlightAware ADS-B
Tue 05:06:10 AM 27.9900 -86.6200 109° East 459 528 37,000  Level FlightAware ADS-B
Tue 05:06:56 AM 27.9620 -86.5310 110° East 459 528 37,000  Level FlightAware ADS-B
Tue 05:07:32 AM 27.9410 -86.4610 109° East 459 528 37,000  Level FlightAware ADS-B
Tue 05:08:02 AM 27.9120 -86.3690 110° East 458 527 37,000  Level FlightAware ADS-B
Tue 05:08:36 AM 27.8880 -86.2930 110° East 458 527 37,000  Level FlightAware ADS-B
Tue 05:09:21 AM 27.8560 -86.1910 110° East 457 526 37,000  Level FlightAware ADS-B
Tue 05:09:41 AM 27.8360 -86.1460 117° Southeast 454 522 37,000  Level FlightAware ADS-B
Tue 05:10:16 AM 27.7940 -86.0770 125° Southeast 456 525 37,000  Level FlightAware ADS-B
Tue 05:10:53 AM 27.7570 -86.0140 124° Southeast 456 525 37,000  Level FlightAware ADS-B
Tue 05:11:30 AM 27.7200 -85.9520 124° Southeast 456 525 37,000  Level FlightAware ADS-B
Tue 05:12:06 AM 27.6840 -85.8920 124° Southeast 456 525 37,000  Level FlightAware ADS-B
Tue 05:12:42 AM 27.6480 -85.8310 124° Southeast 456 525 37,000  Level FlightAware ADS-B
Tue 05:13:21 AM 27.5790 -85.7240 126° Southeast 37,000  Level FlightAware ADS-B
Tue 05:13:51 AM 27.5380 -85.6570 125° Southeast 456 525 37,000  Level FlightAware ADS-B
Tue 05:14:26 AM 27.4980 -85.5910 124° Southeast 456 525 37,000  Level FlightAware ADS-B
Tue 05:15:01 AM 27.4540 -85.5200 125° Southeast 457 526 37,000  Level FlightAware ADS-B
Tue 05:15:41 AM 27.4100 -85.4460 124° Southeast 452 520 37,000  Level FlightAware ADS-B
Tue 05:16:11 AM 27.3720 -85.3820 124° Southeast 451 519 37,000  Level FlightAware ADS-B
Tue 05:16:46 AM 27.3340 -85.3170 123° Southeast 451 519 37,000  Level FlightAware ADS-B
Tue 05:17:30 AM 27.2940 -85.2450 122° Southeast 451 519 37,000  Level FlightAware ADS-B
Tue 05:18:06 AM 27.2600 -85.1840 122° Southeast 451 519 37,000  Level FlightAware ADS-B
Tue 05:18:40 AM 27.2020 -85.0870 124° Southeast 458 527 37,000  Level FlightAware ADS-B
Tue 05:19:16 AM 27.1610 -85.0150 123° Southeast 458 527 37,000  Level FlightAware ADS-B
Tue 05:19:46 AM 27.1280 -84.9570 123° Southeast 457 526 37,000  Level FlightAware ADS-B
Tue 05:20:26 AM 27.0830 -84.8780 123° Southeast 457 526 37,000  Level FlightAware ADS-B
Tue 05:20:57 AM 27.0470 -84.8140 122° Southeast 455 524 37,000  Level FlightAware ADS-B
Tue 05:21:41 AM 26.9970 -84.7240 122° Southeast 455 524 37,000  Level FlightAware ADS-B
Tue 05:22:16 AM 26.9590 -84.6560 122° Southeast 455 524 37,000  Level FlightAware ADS-B
Tue 05:23:09 AM 26.9080 -84.5630 122° Southeast 456 525 37,000  Level FlightAware ADS-B
Tue 05:23:45 AM 26.8750 -84.5010 121° Southeast 456 525 37,000  Level FlightAware ADS-B
Tue 05:24:21 AM 26.8410 -84.4390 122° Southeast 456 525 37,000 59 Level FlightAware ADS-B
Tue 05:25:27 AM 26.7450 -84.2660 122° Southeast 467 537 37,100 50 Climbing FlightAware ADS-B
Tue 05:26:22 AM 26.6900 -84.1620 121° Southeast 466 536 37,100  Level FlightAware ADS-B
Tue 05:26:58 AM 26.6560 -84.0990 121° Southeast 466 536 37,100  Level FlightAware ADS-B
Tue 05:27:35 AM 26.6210 -84.0340 121° Southeast 466 536 37,100  Level FlightAware ADS-B
Tue 05:28:12 AM 26.5860 -83.9690 121° Southeast 466 536 37,100 -79 Level FlightAware ADS-B
Tue 05:28:51 AM 26.5150 -83.8480 123° Southeast 465 535 37,000 -81 Descending FlightAware ADS-B
Tue 05:29:26 AM 26.4760 -83.7780 122° Southeast 465 535 37,000  Level FlightAware ADS-B
Tue 05:29:58 AM 26.4410 -83.7150 122° Southeast 465 535 37,000  Level FlightAware ADS-B
Tue 05:30:32 AM 26.4080 -83.6530 121° Southeast 465 535 37,000  Level FlightAware ADS-B
Tue 05:31:08 AM 26.3740 -83.5900 121° Southeast 465 535 37,000  Level FlightAware ADS-B
Tue 05:31:44 AM 26.3400 -83.5270 121° Southeast 465 535 37,000  Level FlightAware ADS-B
Tue 05:32:20 AM 26.3060 -83.4650 121° Southeast 465 535 37,000  Level FlightAware ADS-B
Tue 05:32:56 AM 26.2720 -83.4020 121° Southeast 465 535 37,000  Level FlightAware ADS-B
Tue 05:33:32 AM 26.2380 -83.3390 121° Southeast 465 535 37,000 -206 Level FlightAware ADS-B
Tue 05:33:36 AM 26.2780 -83.2230 69° East 37,000 -259 Level FlightAware ADS-B
Tue 05:35:15 AM 26.2480 -82.9890 98° East 37,000 -267 Level FlightAware ADS-B
Tue 05:35:51 AM 26.2420 -82.8970 94° East 466 536 36,400 -947 Descending FlightAware ADS-B
Tue 05:36:31 AM 26.2370 -82.8110 94° East 466 536 35,800 -960 Descending FlightAware ADS-B
Tue 05:37:06 AM 26.2310 -82.7250 94° East 474 545 35,200 -1,565 Descending FlightAware ADS-B
Tue 05:37:40 AM 26.2250 -82.6390 94° East 480 552 34,000 -2,471 Descending FlightAware ADS-B
Tue 05:38:14 AM 26.2200 -82.5520 94° East 485 558 32,400 -2,720 Descending FlightAware ADS-B
Tue 05:38:55 AM 26.2130 -82.4500 94° East 486 559 30,600 -2,486 Descending FlightAware ADS-B
Tue 05:39:24 AM 26.2080 -82.3780 94° East 483 556 29,500 -2,215 Descending FlightAware ADS-B
Tue 05:40:00 AM 26.2020 -82.2900 94° East 479 551 28,200 -2,229 Descending FlightAware ADS-B
Tue 05:40:34 AM 26.1960 -82.2060 95° East 475 547 26,900 -2,240 Descending FlightAware ADS-B
Tue 05:41:15 AM 26.1900 -82.1090 94° East 469 540 25,400 -2,314 Descending FlightAware ADS-B
Tue 05:41:44 AM 26.1850 -82.0380 94° East 464 534 24,200 -2,400 Descending FlightAware ADS-B
Tue 05:42:20 AM 26.1790 -81.9540 95° East 452 520 22,800 -2,320 Descending FlightAware ADS-B
Tue 05:42:59 AM 26.1730 -81.8630 94° East 441 507 21,300 -2,240 Descending FlightAware ADS-B
Tue 05:43:35 AM 26.1670 -81.7840 95° East 431 496 20,000 -2,182 Descending FlightAware ADS-B
Tue 05:44:05 AM 26.1620 -81.7180 95° East 422 486 18,900 -2,143 Descending FlightAware ADS-B
Tue 05:44:45 AM 26.1560 -81.6330 94° East 411 473 17,500 -2,113 Descending FlightAware ADS-B
Tue 05:45:16 AM 26.1510 -81.5690 95° East 403 464 16,400 -2,143 Descending FlightAware ADS-B
Tue 05:45:55 AM 26.1450 -81.4890 95° East 393 452 15,000 -2,087 Descending FlightAware ADS-B
Tue 05:46:25 AM 26.1410 -81.4280 94° East 387 445 14,000 -2,031 Descending FlightAware ADS-B
Tue 05:47:00 AM 26.1360 -81.3610 95° East 380 437 12,800 -1,971 Descending FlightAware ADS-B
Tue 05:47:35 AM 26.1300 -81.2920 96° East 372 428 11,700 -1,760 Descending FlightAware ADS-B
Tue 05:48:15 AM 26.1250 -81.2180 94° East 359 413 10,600 -1,200 Descending FlightAware ADS-B
Tue 05:48:45 AM 26.1210 -81.1640 95° East 338 389 10,300 -750 Descending FlightAware ADS-B
Tue 05:49:19 AM 26.1160 -81.1060 95° East 318 366 9,800 -960 Descending FlightAware ADS-B
Tue 05:49:35 AM 26.1140 -81.0810 95° East 315 362 9,500 -667 Descending FlightAware ADS-B
Tue 05:49:55 AM 26.1130 -81.0490 92° East 296 341 9,400 -409 Descending FlightAware ADS-B
Tue 05:50:19 AM 26.1120 -81.0120 92° East 292 336 9,200 -480 Descending FlightAware ADS-B
Tue 05:50:45 AM 26.1100 -80.9740 93° East 290 334 9,000 -522 Descending FlightAware ADS-B
Tue 05:51:05 AM 26.1090 -80.9440 92° East 290 334 8,800 -735 Descending FlightAware ADS-B
Tue 05:51:34 AM 26.1060 -80.9000 94° East 287 330 8,400 -960 Descending FlightAware ADS-B
Tue 05:51:55 AM 26.1050 -80.8710 92° East 284 327 8,000 -1,174 Descending FlightAware ADS-B
Tue 05:52:20 AM 26.1030 -80.8340 93° East 281 323 7,500 -1,227 Descending FlightAware ADS-B
Tue 05:52:39 AM 26.1010 -80.8070 95° East 280 322 7,100 -1,231 Descending FlightAware ADS-B
Tue 05:52:59 AM 26.1000 -80.7780 92° East 277 319 6,700 -1,024 Descending FlightAware ADS-B
Tue 05:53:20 AM 26.0980 -80.7490 94° East 269 310 6,400 -1,171 Descending FlightAware ADS-B
Tue 05:53:40 AM 26.0970 -80.7210 92° East 268 308 5,900 -1,364 Descending FlightAware ADS-B
Tue 05:54:04 AM 26.0950 -80.6880 94° East 266 306 5,400 -1,167 Descending FlightAware ADS-B
Tue 05:54:16 AM 26.0950 -80.6730 90° East 265 305 5,200 -1,167 Descending FlightAware ADS-B
Tue 05:54:40 AM 26.0930 -80.6400 94° East 265 305 4,700 -1,227 Descending FlightAware ADS-B
Tue 05:55:00 AM 26.0910 -80.6120 95° East 262 302 4,300 -1,231 Descending FlightAware ADS-B
Tue 05:55:19 AM 26.0900 -80.5860 92° East 258 297 3,900 -1,200 Descending FlightAware ADS-B
Tue 05:55:35 AM 26.0890 -80.5660 93° East 257 296 3,600 -1,333 Descending FlightAware ADS-B
Tue 05:55:55 AM 26.0850 -80.5390 99° East 256 295 3,100 -878 Descending FlightAware ADS-B
Tue 05:56:16 AM 26.0810 -80.5130 100° East 258 297 3,000 -154 Descending FlightAware ADS-B
Tue 05:56:34 AM 26.0780 -80.4880 98° East 260 299 3,000  Level FlightAware ADS-B
Tue 05:57:00 AM 26.0770 -80.4550 92° East 248 285 3,000  Level FlightAware ADS-B
Tue 05:57:20 AM 26.0770 -80.4290 90° East 244 281 3,000  Level FlightAware ADS-B
Tue 05:57:39 AM 26.0780 -80.4060 87° East 243 280 3,000  Level FlightAware ADS-B
Tue 05:58:05 AM 26.0790 -80.3730 88° East 243 280 3,000  Level FlightAware ADS-B
Tue 05:58:20 AM 26.0790 -80.3550 90° East 221 254 3,000 -200 Level FlightAware ADS-B
Tue 05:58:35 AM 26.0780 -80.3380 94° East 210 242 2,900 -900 Descending FlightAware ADS-B
Tue 05:59:00 AM 26.0780 -80.3120 90° East 207 238 2,400 -1,067 Descending FlightAware ADS-B
Tue 05:59:20 AM 26.0780 -80.2910 90° East 201 231 2,100 -1,029 Descending FlightAware ADS-B
Tue 05:59:35 AM 26.0780 -80.2750 90° East 198 228 1,800 -900 Descending FlightAware ADS-B
Tue 06:00:00 AM 26.0780 -80.2510 90° East 185 213 1,500 -913 Descending FlightAware ADS-B
Tue 06:00:21 AM 26.0770 -80.2320 93° East 165 190 1,100 -933 Descending FlightAware ADS-B
Tue 06:00:45 AM 26.0770 -80.2140 90° East 142 163 800 -615 Descending FlightAware ADS-B
Tue 06:01:00 AM 26.0770 -80.2020 90° East 138 159 700 -600 Descending FlightAware ADS-B
Tue 06:01:15 AM 26.0770 -80.1950 90° East 136 157 500 -750 Descending FlightAware ADS-B
Tue 06:01:40 AM 26.0770 -80.1750 90° East 135 155 200 -321 Descending FlightAware ADS-B
Tue 06:02:11 AM 26.0770 -80.1580 90° East 135 155 200  Level FlightAware ADS-B
Tue 06:09:00 AM 26.0667 -80.1500 180° South  Level FlightAware Approximate

Login

Don't have an account? Register now (free) for customized features, flight alerts, and more!